PWSweather.com
Personal Weather Stations
Station Observations
BERGSLAGEN
Bergslagen, NoraSE

BergslagenNoraSE

Lat: 59.532278, Lon: 15.016132

Elevation: 492

Station Type: Davis Vantage Pro2 Plus Wireless

http://www.weather.tallasen.se

Latest ConditionsUpdated 9:45:02 AM GMT+01:01 Sunday, Feb 18, 2018
Currently Today's Max Today's Min Today's Average
Temperature 28.9°F-1.7°C 28.9°F-1.7°C 26.1°F-3.3°C 27.2°F-2.7°C
Dew Point 26.6°F-3.0°C 26.6°F-3.0°C 23.4°F-4.8°C 24.5°F-4.2°C
Winds 1.0 mph W1.6 kmh W 7.0 mph W11.3 kmh W - 1.9 mph 3.1 kmh
Wind Gusts 4.0 mph6.4 kmh 14.0 mph22.5 kmh - -
Humidity 91% 91% 87% 90%
Pressure 30.19 in1022.4 mb 30.23 in1023.7 mb 30.19 in1022.4 mb -
Hour Temp Dew Point Humidity Winds Wind Gusts Pressure Precip Precip Rate Daily Precip Total
09:45 AM 28.9°F-1.7°C 26.6°F-3.0°C 91% 1.0 mph W1.6 kmh W 4.0 mph6.4 kmh 30.19 in1022.4 mb 0.00 in0.0 mm 0.00 in0.0 mm 0.00 in0.0 mm
09:30 AM 28.8°F-1.8°C 26.5°F-3.1°C 91% Calm Calm 2.0 mph3.2 kmh 30.19 in1022.4 mb 0.00 in0.0 mm 0.00 in0.0 mm 0.00 in0.0 mm
09:15 AM 28.4°F-2.0°C 26.1°F-3.3°C 91% 1.0 mph W1.6 kmh W 3.0 mph4.8 kmh 30.20 in1022.7 mb 0.00 in0.0 mm 0.00 in0.0 mm 0.00 in0.0 mm
09:00 AM 28.0°F-2.2°C 25.8°F-3.4°C 91% 1.0 mph W1.6 kmh W 4.0 mph6.4 kmh 30.20 in1022.7 mb 0.00 in0.0 mm 0.00 in0.0 mm 0.00 in0.0 mm
08:45 AM 27.9°F-2.3°C 25.6°F-3.6°C 91% Calm Calm 2.0 mph3.2 kmh 30.20 in1022.7 mb 0.00 in0.0 mm 0.00 in0.0 mm 0.00 in0.0 mm
08:30 AM 27.7°F-2.4°C 25.4°F-3.7°C 91% Calm Calm 2.0 mph3.2 kmh 30.20 in1022.7 mb 0.00 in0.0 mm 0.00 in0.0 mm 0.00 in0.0 mm
08:15 AM 27.3°F-2.6°C 25.0°F-3.9°C 91% Calm Calm 2.0 mph3.2 kmh 30.20 in1022.7 mb 0.00 in0.0 mm 0.00 in0.0 mm 0.00 in0.0 mm
08:00 AM 27.1°F-2.7°C 24.9°F-3.9°C 91% Calm Calm 3.0 mph4.8 kmh 30.20 in1022.7 mb 0.00 in0.0 mm 0.00 in0.0 mm 0.00 in0.0 mm
07:45 AM 27.0°F-2.8°C 24.7°F-4.1°C 91% Calm Calm 3.0 mph4.8 kmh 30.20 in1022.7 mb 0.00 in0.0 mm 0.00 in0.0 mm 0.00 in0.0 mm
07:30 AM 26.4°F-3.1°C 24.1°F-4.4°C 91% Calm Calm 3.0 mph4.8 kmh 30.21 in1023.0 mb 0.00 in0.0 mm 0.00 in0.0 mm 0.00 in0.0 mm
07:15 AM 26.4°F-3.1°C 24.1°F-4.4°C 91% Calm Calm -- 30.20 in1022.7 mb 0.00 in0.0 mm 0.00 in0.0 mm 0.00 in0.0 mm
07:00 AM 26.6°F-3.0°C 24.3°F-4.3°C 91% Calm Calm 1.0 mph1.6 kmh 30.20 in1022.7 mb 0.00 in0.0 mm 0.00 in0.0 mm 0.00 in0.0 mm
06:45 AM 26.2°F-3.2°C 24.0°F-4.4°C 91% Calm Calm -- 30.21 in1023.0 mb 0.00 in0.0 mm 0.00 in0.0 mm 0.00 in0.0 mm
06:30 AM 26.2°F-3.2°C 24.0°F-4.4°C 91% Calm Calm -- 30.21 in1023.0 mb 0.00 in0.0 mm 0.00 in0.0 mm 0.00 in0.0 mm
06:15 AM 26.2°F-3.2°C 23.7°F-4.6°C 90% Calm Calm -- 30.21 in1023.0 mb 0.00 in0.0 mm 0.00 in0.0 mm 0.00 in0.0 mm
06:00 AM 26.2°F-3.2°C 23.7°F-4.6°C 90% Calm Calm 2.0 mph3.2 kmh 30.21 in1023.0 mb 0.00 in0.0 mm 0.00 in0.0 mm 0.00 in0.0 mm
05:45 AM 26.2°F-3.2°C 23.7°F-4.6°C 90% Calm Calm 2.0 mph3.2 kmh 30.21 in1023.0 mb 0.00 in0.0 mm 0.00 in0.0 mm 0.00 in0.0 mm
05:30 AM 26.1°F-3.3°C 23.5°F-4.7°C 90% Calm Calm 2.0 mph3.2 kmh 30.21 in1023.0 mb 0.00 in0.0 mm 0.00 in0.0 mm 0.00 in0.0 mm
05:15 AM 26.2°F-3.2°C 23.4°F-4.8°C 89% Calm Calm 2.0 mph3.2 kmh 30.21 in1023.0 mb 0.00 in0.0 mm 0.00 in0.0 mm 0.00 in0.0 mm
05:00 AM 26.2°F-3.2°C 23.4°F-4.8°C 89% Calm Calm 2.0 mph3.2 kmh 30.22 in1023.4 mb 0.00 in0.0 mm 0.00 in0.0 mm 0.00 in0.0 mm
04:45 AM 26.4°F-3.1°C 23.6°F-4.7°C 89% Calm Calm 2.0 mph3.2 kmh 30.22 in1023.4 mb 0.00 in0.0 mm 0.00 in0.0 mm 0.00 in0.0 mm
04:30 AM 26.8°F-2.9°C 24.0°F-4.4°C 89% Calm Calm 3.0 mph4.8 kmh 30.22 in1023.4 mb 0.00 in0.0 mm 0.00 in0.0 mm 0.00 in0.0 mm
04:15 AM 27.1°F-2.7°C 24.1°F-4.4°C 88% 1.0 mph W1.6 kmh W 5.0 mph8.0 kmh 30.22 in1023.4 mb 0.00 in0.0 mm 0.00 in0.0 mm 0.00 in0.0 mm
04:00 AM 27.5°F-2.5°C 24.4°F-4.2°C 88% 3.0 mph W4.8 kmh W 9.0 mph14.5 kmh 30.22 in1023.4 mb 0.00 in0.0 mm 0.00 in0.0 mm 0.00 in0.0 mm
03:45 AM 27.5°F-2.5°C 24.4°F-4.2°C 88% 3.0 mph W4.8 kmh W 7.0 mph11.3 kmh 30.22 in1023.4 mb 0.00 in0.0 mm 0.00 in0.0 mm 0.00 in0.0 mm
03:30 AM 27.5°F-2.5°C 24.4°F-4.2°C 88% 3.0 mph W4.8 kmh W 6.0 mph9.7 kmh 30.22 in1023.4 mb 0.00 in0.0 mm 0.00 in0.0 mm 0.00 in0.0 mm
03:15 AM 27.5°F-2.5°C 24.1°F-4.4°C 87% 3.0 mph W4.8 kmh W 7.0 mph11.3 kmh 30.22 in1023.4 mb 0.00 in0.0 mm 0.00 in0.0 mm 0.00 in0.0 mm
03:00 AM 27.3°F-2.6°C 24.0°F-4.4°C 87% 3.0 mph W4.8 kmh W 7.0 mph11.3 kmh 30.22 in1023.4 mb 0.00 in0.0 mm 0.00 in0.0 mm 0.00 in0.0 mm
02:45 AM 27.3°F-2.6°C 24.0°F-4.4°C 87% 5.0 mph W8.0 kmh W 10.0 mph16.1 kmh 30.22 in1023.4 mb 0.00 in0.0 mm 0.00 in0.0 mm 0.00 in0.0 mm
02:30 AM 27.5°F-2.5°C 24.1°F-4.4°C 87% 7.0 mph W11.3 kmh W 14.0 mph22.5 kmh 30.22 in1023.4 mb 0.00 in0.0 mm 0.00 in0.0 mm 0.00 in0.0 mm
02:15 AM 27.5°F-2.5°C 24.4°F-4.2°C 88% 5.0 mph W8.0 kmh W 11.0 mph17.7 kmh 30.23 in1023.7 mb 0.00 in0.0 mm 0.00 in0.0 mm 0.00 in0.0 mm
02:00 AM 27.5°F-2.5°C 24.7°F-4.1°C 89% 6.0 mph W9.7 kmh W 12.0 mph19.3 kmh 30.22 in1023.4 mb 0.00 in0.0 mm 0.00 in0.0 mm 0.00 in0.0 mm
01:45 AM 27.5°F-2.5°C 24.7°F-4.1°C 89% 5.0 mph W8.0 kmh W 13.0 mph20.9 kmh 30.22 in1023.4 mb 0.00 in0.0 mm 0.00 in0.0 mm 0.00 in0.0 mm
01:30 AM 27.5°F-2.5°C 24.7°F-4.1°C 89% 5.0 mph W8.0 kmh W 10.0 mph16.1 kmh 30.22 in1023.4 mb 0.00 in0.0 mm 0.00 in0.0 mm 0.00 in0.0 mm
01:15 AM 27.5°F-2.5°C 24.7°F-4.1°C 89% 4.0 mph W6.4 kmh W 12.0 mph19.3 kmh 30.22 in1023.4 mb 0.00 in0.0 mm 0.00 in0.0 mm 0.00 in0.0 mm
01:00 AM 27.5°F-2.5°C 25.0°F-3.9°C 90% 3.0 mph WNW4.8 kmh WNW 11.0 mph17.7 kmh 30.22 in1023.4 mb 0.00 in0.0 mm 0.00 in0.0 mm 0.00 in0.0 mm
12:45 AM 27.7°F-2.4°C 25.1°F-3.8°C 90% 3.0 mph W4.8 kmh W 9.0 mph14.5 kmh 30.22 in1023.4 mb 0.00 in0.0 mm 0.00 in0.0 mm 0.00 in0.0 mm
12:30 AM 27.7°F-2.4°C 25.1°F-3.8°C 90% 4.0 mph W6.4 kmh W 10.0 mph16.1 kmh 30.22 in1023.4 mb 0.00 in0.0 mm 0.00 in0.0 mm 0.00 in0.0 mm
12:15 AM 27.7°F-2.4°C 24.9°F-3.9°C 89% 4.0 mph W6.4 kmh W 10.0 mph16.1 kmh 30.22 in1023.4 mb 0.00 in0.0 mm 0.00 in0.0 mm 0.00 in0.0 mm
12:00 AM 27.9°F-2.3°C 25.0°F-3.9°C 89% 5.0 mph W8.0 kmh W 11.0 mph17.7 kmh 30.22 in1023.4 mb 0.00 in0.0 mm 0.00 in0.0 mm 0.00 in0.0 mm